createdAt,value
2023-02-12T00:00:06.006Z,101813.09
2023-02-12T00:00:56.717Z,101803.31
2023-02-12T00:01:38.696Z,101810.75
2023-02-12T00:02:44.344Z,101815.19
2023-02-12T00:03:32.578Z,101817.72
2023-02-12T00:04:24.528Z,101813.19
2023-02-12T00:05:08.925Z,101796.53
2023-02-12T00:05:50.650Z,101815.72
2023-02-12T00:06:32.463Z,101813.09
2023-02-12T00:07:14.210Z,101813.00
2023-02-12T00:08:00.274Z,101800.22
2023-02-12T00:08:51.786Z,101814.44
2023-02-12T00:09:33.659Z,101805.84
2023-02-12T00:10:15.466Z,101815.28
2023-02-12T00:11:16.392Z,101818.03
2023-02-12T00:12:14.418Z,101790.25
2023-02-12T00:12:57.428Z,101819.19
2023-02-12T00:13:50.503Z,101814.13
2023-02-12T00:14:33.634Z,101795.66
2023-02-12T00:15:19.327Z,101776.94
2023-02-12T00:16:06.948Z,101790.41
2023-02-12T00:16:51.688Z,101799.81
2023-02-12T00:17:33.397Z,101822.34
2023-02-12T00:18:18.083Z,101798.44
2023-02-12T00:19:07.471Z,101802.66
2023-02-12T00:19:51.929Z,101817.63
2023-02-12T00:20:44.558Z,101790.44
2023-02-12T00:21:29.148Z,101776.97
2023-02-12T00:22:16.840Z,101804.75
2023-02-12T00:23:11.939Z,101808.78
2023-02-12T00:23:58.362Z,101811.09
2023-02-12T00:24:41.490Z,101806.13
2023-02-12T00:25:23.266Z,101803.59
2023-02-12T00:26:09.494Z,101816.38
2023-02-12T00:26:55.788Z,101815.53
2023-02-12T00:27:38.782Z,101809.19
2023-02-12T00:28:29.123Z,101808.34
2023-02-12T00:29:11.266Z,101821.09
2023-02-12T00:30:03.570Z,101785.81
2023-02-12T00:30:48.468Z,101826.75
2023-02-12T00:31:33.878Z,101819.09
2023-02-12T00:32:23.475Z,101797.47
2023-02-12T00:33:17.313Z,101819.94
2023-02-12T00:34:02.046Z,101802.75
2023-02-12T00:34:50.647Z,101808.88
2023-02-12T00:35:37.482Z,101805.19
2023-02-12T00:36:40.480Z,101817.50
2023-02-12T00:37:26.469Z,101817.41
2023-02-12T00:38:36.826Z,101806.88
2023-02-12T00:39:23.511Z,101818.56
2023-02-12T00:40:06.347Z,101813.19
2023-02-12T00:40:56.988Z,101793.06
2023-02-12T00:41:41.645Z,101782.25
2023-02-12T00:42:30.756Z,101807.63
2023-02-12T00:43:12.409Z,101812.34
2023-02-12T00:44:01.294Z,101810.03
2023-02-12T00:44:45.931Z,101807.19
2023-02-12T00:45:29.740Z,101790.63
2023-02-12T00:46:22.441Z,101795.47
2023-02-12T00:47:11.780Z,101816.94
2023-02-12T00:47:56.589Z,101807.97
2023-02-12T00:48:41.393Z,101805.66
2023-02-12T00:49:34.058Z,101818.94
2023-02-12T00:50:20.559Z,101808.63
2023-02-12T00:51:02.802Z,101821.72
2023-02-12T00:51:50.238Z,101825.91
2023-02-12T00:52:35.989Z,101831.91
2023-02-12T00:53:23.080Z,101820.78
2023-02-12T00:54:13.461Z,101826.34
2023-02-12T00:55:07.040Z,101829.63
2023-02-12T00:55:51.352Z,101774.72
2023-02-12T00:56:40.202Z,101828.44
2023-02-12T00:57:31.827Z,101824.88
2023-02-12T00:58:18.870Z,101816.97
2023-02-12T00:59:13.527Z,101834.03
2023-02-12T00:59:59.714Z,101827.69
2023-02-12T01:00:45.394Z,101837.28
2023-02-12T01:01:32.927Z,101817.91
2023-02-12T01:02:22.069Z,101809.50
2023-02-12T01:03:06.881Z,101836.69
2023-02-12T01:04:07.563Z,101834.34
2023-02-12T01:04:49.426Z,101816.78
2023-02-12T01:05:45.594Z,101814.69
2023-02-12T01:06:35.751Z,101819.00
2023-02-12T01:07:27.744Z,101814.44
2023-02-12T01:08:15.213Z,101823.63
2023-02-12T01:09:02.721Z,101828.69
2023-02-12T01:09:51.922Z,101808.97
2023-02-12T01:10:37.256Z,101791.38
2023-02-12T01:11:33.878Z,101807.50
2023-02-12T01:12:15.561Z,101831.41
2023-02-12T01:13:00.725Z,101812.75
2023-02-12T01:13:42.549Z,101820.34
2023-02-12T01:14:27.986Z,101827.84
2023-02-12T01:15:27.440Z,101831.72
2023-02-12T01:16:24.911Z,101824.13
2023-02-12T01:17:16.257Z,101831.31
2023-02-12T01:18:07.287Z,101835.63
2023-02-12T01:18:53.723Z,101832.00
2023-02-12T01:19:42.320Z,101832.75
2023-02-12T01:20:28.539Z,101823.06
2023-02-12T01:21:30.639Z,101824.25
2023-02-12T01:22:15.117Z,101805.34
2023-02-12T01:23:07.015Z,101823.38
2023-02-12T01:23:58.885Z,101830.81
2023-02-12T01:24:50.637Z,101825.13
2023-02-12T01:25:38.872Z,101825.63
2023-02-12T01:26:21.750Z,101829.94
2023-02-12T01:27:06.558Z,101799.38
2023-02-12T01:28:05.518Z,101818.91
2023-02-12T01:28:56.201Z,101832.69
2023-02-12T01:29:41.666Z,101821.31
2023-02-12T01:30:24.336Z,101834.59
2023-02-12T01:31:15.329Z,101836.94
2023-02-12T01:32:18.746Z,101841.09
2023-02-12T01:33:00.638Z,101829.50
2023-02-12T01:33:43.367Z,101828.53
2023-02-12T01:34:28.535Z,101827.72
2023-02-12T01:35:14.573Z,101830.47
2023-02-12T01:36:09.083Z,101833.72
2023-02-12T01:36:53.572Z,101831.72
2023-02-12T01:37:53.555Z,101832.56
2023-02-12T01:38:40.915Z,101821.63
2023-02-12T01:39:24.565Z,101829.53
2023-02-12T01:40:09.356Z,101828.97
2023-02-12T01:40:51.079Z,101832.00
2023-02-12T01:41:46.108Z,101833.19
2023-02-12T01:42:27.829Z,101829.03
2023-02-12T01:43:18.629Z,101828.41
2023-02-12T01:44:10.944Z,101821.56
2023-02-12T01:45:19.272Z,101834.59
2023-02-12T01:46:08.334Z,101821.25
2023-02-12T01:47:01.706Z,101801.97
2023-02-12T01:47:53.784Z,101814.63
2023-02-12T01:48:48.332Z,101805.16
2023-02-12T01:49:47.843Z,101823.38
2023-02-12T01:50:36.932Z,101786.41
2023-02-12T01:51:27.843Z,101806.72
2023-02-12T01:52:21.345Z,101817.00
2023-02-12T01:53:18.684Z,101808.81
2023-02-12T01:54:04.091Z,101816.06
2023-02-12T01:54:57.105Z,101825.56
2023-02-12T01:55:39.740Z,101814.63
2023-02-12T01:56:40.684Z,101814.19
2023-02-12T01:57:24.695Z,101817.41
2023-02-12T01:58:12.037Z,101778.84
2023-02-12T01:58:59.573Z,101790.41
2023-02-12T01:59:58.290Z,101785.25
2023-02-12T02:00:50.695Z,101815.38
2023-02-12T02:01:42.589Z,101808.34
2023-02-12T02:02:25.298Z,101798.53
2023-02-12T02:03:07.423Z,101812.44
2023-02-12T02:03:59.468Z,101814.88
2023-02-12T02:04:48.585Z,101817.31
2023-02-12T02:05:56.288Z,101817.91
2023-02-12T02:06:54.470Z,101813.38
2023-02-12T02:07:45.919Z,101796.34
2023-02-12T02:08:30.648Z,101807.91
2023-02-12T02:09:16.766Z,101813.94
2023-02-12T02:09:58.990Z,101801.59
2023-02-12T02:10:51.187Z,101811.28
2023-02-12T02:11:59.965Z,101803.50
2023-02-12T02:13:05.397Z,101804.97
2023-02-12T02:14:26.640Z,101804.13
2023-02-12T02:15:18.717Z,101807.91
2023-02-12T02:16:06.634Z,101806.44
2023-02-12T02:17:19.763Z,101800.13
2023-02-12T02:18:21.727Z,101785.94
2023-02-12T02:19:11.155Z,101803.06
2023-02-12T02:20:17.762Z,101809.72
2023-02-12T02:21:03.807Z,101809.72
2023-02-12T02:22:20.239Z,101810.56
2023-02-12T02:23:52.578Z,101806.03
2023-02-12T02:25:08.560Z,101744.53
2023-02-12T02:26:34.309Z,101808.56
2023-02-12T02:27:39.218Z,101808.66
2023-02-12T02:28:52.861Z,101806.88
2023-02-12T02:29:52.843Z,101816.47
2023-02-12T02:31:00.137Z,101790.03
2023-02-12T02:31:58.050Z,101812.16
2023-02-12T02:33:11.932Z,101811.41
2023-02-12T02:34:41.350Z,101792.34
2023-02-12T02:35:51.982Z,101813.19
2023-02-12T02:37:00.617Z,101789.03
2023-02-12T02:37:58.830Z,101799.25
2023-02-12T02:39:12.707Z,101798.13
2023-02-12T02:40:06.257Z,101814.13
2023-02-12T02:41:31.174Z,101808.66
2023-02-12T02:42:37.270Z,101809.41
2023-02-12T02:43:32.994Z,101768.63
2023-02-12T02:44:43.922Z,101805.28
2023-02-12T02:45:47.261Z,101812.66
2023-02-12T02:46:49.032Z,101791.09
2023-02-12T02:47:38.229Z,101793.81
2023-02-12T02:48:36.702Z,101793.81
2023-02-12T02:49:42.669Z,101807.38
2023-02-12T02:50:27.907Z,101808.34
2023-02-12T02:51:19.438Z,101771.44
2023-02-12T02:52:09.194Z,101811.50
2023-02-12T02:52:56.689Z,101816.22
2023-02-12T02:54:14.124Z,101812.31
2023-02-12T02:55:08.579Z,101807.25
2023-02-12T02:55:58.945Z,101808.28
2023-02-12T02:56:51.124Z,101809.25
2023-02-12T02:57:45.678Z,101796.50
2023-02-12T02:59:01.502Z,101811.66
2023-02-12T02:59:50.858Z,101776.00
2023-02-12T03:01:00.961Z,101810.53
2023-02-12T03:01:55.075Z,101768.81
2023-02-12T03:03:01.114Z,101805.09
2023-02-12T03:05:27.113Z,101814.34
2023-02-12T03:06:24.166Z,101814.25
2023-02-12T03:07:33.964Z,101801.41
2023-02-12T03:08:24.041Z,101815.91
2023-02-12T03:09:43.700Z,101813.19
2023-02-12T03:10:36.073Z,101809.06
2023-02-12T03:11:31.080Z,101814.78
2023-02-12T03:12:19.845Z,101812.16
2023-02-12T03:13:14.669Z,101813.00
2023-02-12T03:14:04.404Z,101819.09
2023-02-12T03:15:12.571Z,101814.69
2023-02-12T03:16:18.328Z,101798.53
2023-02-12T03:17:08.446Z,101818.88
2023-02-12T03:18:00.693Z,101816.22
2023-02-12T03:19:06.516Z,101817.06
2023-02-12T03:20:00.285Z,101813.50
2023-02-12T03:20:51.178Z,101816.13
2023-02-12T03:21:46.333Z,101798.13
2023-02-12T03:22:41.246Z,101810.97
2023-02-12T03:23:33.504Z,101816.13
2023-02-12T03:24:35.183Z,101813.59
2023-02-12T03:25:26.737Z,101802.03
2023-02-12T03:26:23.732Z,101810.13
2023-02-12T03:27:16.183Z,101802.22
2023-02-12T03:28:20.281Z,101803.50
2023-02-12T03:29:02.135Z,101787.28
2023-02-12T03:31:33.275Z,101811.59
2023-02-12T03:32:43.576Z,101811.41
2023-02-12T03:33:48.786Z,101810.47
2023-02-12T03:34:48.662Z,101817.41
2023-02-12T03:35:49.374Z,101811.59
2023-02-12T03:37:41.570Z,101814.53
2023-02-12T03:38:46.315Z,101812.66
2023-02-12T03:39:36.352Z,101811.69
2023-02-12T03:40:25.353Z,101808.22
2023-02-12T03:41:20.974Z,101807.47
2023-02-12T03:42:09.399Z,101811.91
2023-02-12T03:42:58.316Z,101811.19
2023-02-12T03:43:58.160Z,101806.88
2023-02-12T03:45:02.335Z,101802.97
2023-02-12T03:46:15.050Z,101804.97
2023-02-12T03:47:09.678Z,101802.47
2023-02-12T03:48:17.631Z,101801.38
2023-02-12T03:49:00.799Z,101805.94
2023-02-12T03:50:09.711Z,101805.09
2023-02-12T03:51:02.616Z,101809.72
2023-02-12T03:51:48.353Z,101799.59
2023-02-12T03:52:30.486Z,101793.06
2023-02-12T03:53:17.980Z,101806.78
2023-02-12T03:54:05.054Z,101808.47
2023-02-12T03:54:49.813Z,101806.66
2023-02-12T03:55:51.506Z,101816.13
2023-02-12T03:57:02.074Z,101781.31
2023-02-12T03:57:54.400Z,101788.56
2023-02-12T03:58:42.648Z,101818.34
2023-02-12T03:59:25.472Z,101813.84
2023-02-12T04:00:13.854Z,101817.50
2023-02-12T04:01:06.302Z,101808.97
2023-02-12T04:01:52.544Z,101814.69
2023-02-12T04:02:41.744Z,101806.53
2023-02-12T04:03:26.271Z,101794.00
2023-02-12T04:04:09.633Z,101811.41
2023-02-12T04:05:00.698Z,101804.09
2023-02-12T04:05:43.961Z,101812.72
2023-02-12T04:06:34.073Z,101812.72
2023-02-12T04:07:20.116Z,101816.09
2023-02-12T04:08:12.639Z,101778.72
2023-02-12T04:08:57.365Z,101813.25
2023-02-12T04:09:45.421Z,101812.50
2023-02-12T04:10:45.980Z,101808.94
2023-02-12T04:11:36.574Z,101814.03
2023-02-12T04:12:49.868Z,101815.50
2023-02-12T04:13:57.536Z,101816.88
2023-02-12T04:14:51.155Z,101815.09
2023-02-12T04:15:38.915Z,101812.34
2023-02-12T04:17:00.537Z,101820.03
2023-02-12T04:18:01.670Z,101806.25
2023-02-12T04:18:50.535Z,101818.03
2023-02-12T04:19:41.504Z,101818.88
2023-02-12T04:20:44.106Z,101817.06
2023-02-12T04:21:50.541Z,101819.69
2023-02-12T04:23:07.599Z,101816.88
2023-02-12T04:24:11.921Z,101821.19
2023-02-12T04:25:35.689Z,101829.00
2023-02-12T04:26:30.295Z,101827.31
2023-02-12T04:27:38.052Z,101827.19
2023-02-12T04:28:37.334Z,101829.84
2023-02-12T04:29:45.053Z,101828.13
2023-02-12T04:30:44.386Z,101816.47
2023-02-12T04:31:29.518Z,101830.22
2023-02-12T04:32:56.180Z,101831.09
2023-02-12T04:33:48.830Z,101815.09
2023-02-12T04:34:43.659Z,101818.16
2023-02-12T04:35:36.625Z,101829.72
2023-02-12T04:36:24.384Z,101825.59
2023-02-12T04:37:10.183Z,101836.97
2023-02-12T04:38:16.090Z,101810.81
2023-02-12T04:39:08.126Z,101823.78
2023-02-12T04:39:52.947Z,101839.91
2023-02-12T04:40:39.942Z,101840.34
2023-02-12T04:41:28.960Z,101837.78
2023-02-12T04:42:12.036Z,101839.66
2023-02-12T04:43:12.915Z,101843.97
2023-02-12T04:43:54.794Z,101842.19
2023-02-12T04:44:43.942Z,101841.25
2023-02-12T04:45:35.287Z,101840.34
2023-02-12T04:46:27.140Z,101842.03
2023-02-12T04:47:22.082Z,101815.13
2023-02-12T04:48:15.672Z,101843.63
2023-02-12T04:49:09.125Z,101830.19
2023-02-12T04:49:53.399Z,101831.88
2023-02-12T04:50:43.302Z,101837.88
2023-02-12T04:51:25.469Z,101837.78
2023-02-12T04:52:12.732Z,101816.91
2023-02-12T04:52:54.417Z,101834.00
2023-02-12T04:53:39.751Z,101837.97
2023-02-12T04:54:22.911Z,101837.88
2023-02-12T04:55:07.708Z,101829.66
2023-02-12T04:55:53.314Z,101831.03
2023-02-12T04:56:35.159Z,101833.75
2023-02-12T04:57:16.888Z,101837.47
2023-02-12T04:57:58.621Z,101823.75
2023-02-12T04:58:43.301Z,101817.13
2023-02-12T04:59:24.986Z,101831.13
2023-02-12T05:00:15.063Z,101830.19
2023-02-12T05:01:04.914Z,101810.19
2023-02-12T05:01:47.974Z,101811.66
2023-02-12T05:02:29.704Z,101820.28
2023-02-12T05:03:17.447Z,101813.88
2023-02-12T05:04:02.262Z,101826.41
2023-02-12T05:04:59.197Z,101834.41
2023-02-12T05:06:07.632Z,101826.09
2023-02-12T05:06:58.301Z,101801.56
2023-02-12T05:07:43.246Z,101826.00
2023-02-12T05:09:26.853Z,101827.34
2023-02-12T05:10:09.256Z,101827.34
2023-02-12T05:10:53.061Z,101823.03
2023-02-12T05:11:40.615Z,101827.34
2023-02-12T05:12:42.154Z,101811.25
2023-02-12T05:13:32.826Z,101807.34
2023-02-12T05:14:23.870Z,101820.59
2023-02-12T05:15:12.556Z,101832.09
2023-02-12T05:16:40.777Z,101825.16
2023-02-12T05:17:23.483Z,101810.09
2023-02-12T05:18:09.348Z,101788.28
2023-02-12T05:18:53.849Z,101810.09
2023-02-12T05:19:41.577Z,101821.13
2023-02-12T05:20:46.141Z,101825.44
2023-02-12T05:21:41.673Z,101823.84
2023-02-12T05:22:32.334Z,101819.88
2023-02-12T05:23:14.001Z,101778.47
2023-02-12T05:24:13.986Z,101795.63
2023-02-12T05:24:58.390Z,101811.41
2023-02-12T05:25:40.269Z,101811.50
2023-02-12T05:26:25.019Z,101815.53
2023-02-12T05:27:19.912Z,101819.75
2023-02-12T05:28:04.664Z,101817.81
2023-02-12T05:28:54.705Z,101798.53
2023-02-12T05:29:43.865Z,101805.84
2023-02-12T05:30:25.553Z,101790.03
2023-02-12T05:31:28.118Z,101822.56
2023-02-12T05:32:26.996Z,101794.09
2023-02-12T05:33:12.095Z,101803.06
2023-02-12T05:33:56.663Z,101818.50
2023-02-12T05:34:40.458Z,101792.69
2023-02-12T05:35:25.000Z,101802.16
2023-02-12T05:36:12.429Z,101832.16
2023-02-12T05:36:54.284Z,101827.09
2023-02-12T05:37:39.452Z,101811.75
2023-02-12T05:38:24.454Z,101828.88
2023-02-12T05:39:14.620Z,101809.22
2023-02-12T05:39:59.144Z,101795.94
2023-02-12T05:40:53.876Z,101793.59
2023-02-12T05:41:41.156Z,101827.28
2023-02-12T05:42:27.868Z,101821.31
2023-02-12T05:43:13.266Z,101819.03
2023-02-12T05:44:06.593Z,101819.88
2023-02-12T05:44:49.739Z,101827.06
2023-02-12T05:45:33.206Z,101792.00
2023-02-12T05:46:22.555Z,101827.38
2023-02-12T05:47:07.472Z,101815.41
2023-02-12T05:47:49.133Z,101808.53
2023-02-12T05:49:38.488Z,101825.84
2023-02-12T05:50:20.238Z,101799.63
2023-02-12T05:51:13.455Z,101820.38
2023-02-12T05:51:55.099Z,101807.00
2023-02-12T05:52:42.497Z,101823.63
2023-02-12T05:53:51.094Z,101800.88
2023-02-12T05:54:58.230Z,101815.00
2023-02-12T05:55:43.688Z,101803.13
2023-02-12T05:56:51.795Z,101792.34
2023-02-12T05:57:40.545Z,101830.81
2023-02-12T05:58:27.926Z,101825.88
2023-02-12T05:59:20.218Z,101833.88
2023-02-12T06:00:23.666Z,101840.81
2023-02-12T06:01:16.320Z,101839.63
2023-02-12T06:02:00.276Z,101841.81
2023-02-12T06:02:46.986Z,101820.94
2023-02-12T06:03:45.429Z,101834.84
2023-02-12T06:04:41.337Z,101840.19
2023-02-12T06:06:36.426Z,101805.00
2023-02-12T06:07:18.157Z,101832.81
2023-02-12T06:08:07.142Z,101841.13
2023-02-12T06:09:09.307Z,101842.63
2023-02-12T06:10:05.204Z,101843.38
2023-02-12T06:10:53.210Z,101842.31
2023-02-12T06:11:46.518Z,101843.91
2023-02-12T06:12:36.250Z,101824.63
2023-02-12T06:13:17.917Z,101844.47
2023-02-12T06:14:05.172Z,101828.53
2023-02-12T06:15:10.523Z,101815.59
2023-02-12T06:15:55.494Z,101846.56
2023-02-12T06:16:47.846Z,101839.84
2023-02-12T06:17:34.102Z,101822.03
2023-02-12T06:18:17.009Z,101838.44
2023-02-12T06:19:07.360Z,101845.31
2023-02-12T06:19:49.001Z,101842.63
2023-02-12T06:20:30.786Z,101830.28
2023-02-12T06:21:32.506Z,101854.63
2023-02-12T06:22:17.986Z,101847.91
2023-02-12T06:23:08.718Z,101861.38
2023-02-12T06:23:55.799Z,101862.13
2023-02-12T06:24:37.484Z,101852.44
2023-02-12T06:25:24.961Z,101847.28
2023-02-12T06:26:11.845Z,101858.03
2023-02-12T06:27:12.710Z,101855.31
2023-02-12T06:27:56.375Z,101862.06
2023-02-12T06:28:42.818Z,101844.88
2023-02-12T06:29:24.565Z,101829.53
2023-02-12T06:30:19.074Z,101862.56
2023-02-12T06:31:06.270Z,101853.75
2023-02-12T06:31:52.401Z,101839.13
2023-02-12T06:32:36.591Z,101856.91
2023-02-12T06:33:26.061Z,101861.16
2023-02-12T06:34:17.483Z,101862.94
2023-02-12T06:35:18.830Z,101838.19
2023-02-12T06:36:04.627Z,101867.66
2023-02-12T06:36:55.110Z,101837.97
2023-02-12T06:37:42.712Z,101866.66
2023-02-12T06:38:30.077Z,101834.59
2023-02-12T06:39:16.495Z,101863.25
2023-02-12T06:40:00.862Z,101863.34
2023-02-12T06:40:48.250Z,101867.44
2023-02-12T06:41:37.388Z,101870.47
2023-02-12T06:42:23.916Z,101836.34
2023-02-12T06:43:09.682Z,101828.19
2023-02-12T06:43:54.070Z,101871.81
2023-02-12T06:44:48.476Z,101856.06
2023-02-12T06:45:35.329Z,101864.06
2023-02-12T06:46:17.124Z,101848.03
2023-02-12T06:47:01.687Z,101853.59
2023-02-12T06:47:57.865Z,101879.22
2023-02-12T06:48:43.864Z,101848.84
2023-02-12T06:49:28.439Z,101874.88
2023-02-12T06:50:10.721Z,101878.47
2023-02-12T06:50:53.005Z,101882.03
2023-02-12T06:51:41.362Z,101866.84
2023-02-12T06:52:35.179Z,101870.19
2023-02-12T06:53:21.045Z,101871.13
2023-02-12T06:54:20.578Z,101853.25
2023-02-12T06:55:05.417Z,101866.72
2023-02-12T06:55:48.748Z,101863.25
2023-02-12T06:56:35.685Z,101864.75
2023-02-12T06:57:26.306Z,101866.09
2023-02-12T06:58:10.629Z,101868.31
2023-02-12T06:59:06.343Z,101869.16
2023-02-12T07:00:01.538Z,101864.66
2023-02-12T07:01:19.697Z,101875.84
2023-02-12T07:02:02.915Z,101843.28
2023-02-12T07:02:46.091Z,101869.63
2023-02-12T07:03:39.438Z,101850.00
2023-02-12T07:04:26.372Z,101865.56
2023-02-12T07:05:16.646Z,101869.91
2023-02-12T07:06:20.836Z,101875.59
2023-02-12T07:07:03.937Z,101862.16
2023-02-12T07:07:55.877Z,101875.53
2023-02-12T07:08:45.777Z,101864.63
2023-02-12T07:09:30.264Z,101865.34
2023-02-12T07:10:37.202Z,101869.28
2023-02-12T07:11:38.271Z,101866.66
2023-02-12T07:12:33.537Z,101875.72
2023-02-12T07:13:29.683Z,101876.38
2023-02-12T07:14:22.048Z,101866.78
2023-02-12T07:15:08.598Z,101873.72
2023-02-12T07:15:57.398Z,101873.00
2023-02-12T07:16:39.336Z,101869.00
2023-02-12T07:17:30.770Z,101880.88
2023-02-12T07:18:18.018Z,101864.44
2023-02-12T07:19:05.358Z,101851.78
2023-02-12T07:19:57.132Z,101863.31
2023-02-12T07:20:41.582Z,101871.66
2023-02-12T07:21:25.667Z,101880.25
2023-02-12T07:22:09.651Z,101852.13
2023-02-12T07:22:53.597Z,101873.84
2023-02-12T07:23:42.949Z,101866.47
2023-02-12T07:24:31.985Z,101870.91
2023-02-12T07:25:19.315Z,101876.06
2023-02-12T07:26:08.049Z,101877.53
2023-02-12T07:26:54.889Z,101877.44
2023-02-12T07:27:41.713Z,101879.97
2023-02-12T07:28:30.731Z,101869.84
2023-02-12T07:29:14.349Z,101879.97
2023-02-12T07:30:00.295Z,101878.72
2023-02-12T07:30:44.879Z,101847.97
2023-02-12T07:31:33.441Z,101878.47
2023-02-12T07:32:20.188Z,101867.00
2023-02-12T07:33:13.373Z,101862.28
2023-02-12T07:34:03.840Z,101844.69
2023-02-12T07:34:51.062Z,101877.53
2023-02-12T07:35:40.689Z,101827.72
2023-02-12T07:36:22.981Z,101854.66
2023-02-12T07:37:06.879Z,101838.88
2023-02-12T07:37:59.098Z,101842.44
2023-02-12T07:38:43.860Z,101853.53
2023-02-12T07:39:31.198Z,101841.63
2023-02-12T07:40:16.009Z,101873.22
2023-02-12T07:41:22.062Z,101875.53
2023-02-12T07:42:12.432Z,101853.09
2023-02-12T07:43:17.346Z,101841.41
2023-02-12T07:44:10.341Z,101867.84
2023-02-12T07:44:57.815Z,101869.41
2023-02-12T07:45:39.526Z,101878.06
2023-02-12T07:46:32.328Z,101873.41
2023-02-12T07:47:15.957Z,101868.56
2023-02-12T07:48:00.050Z,101844.69
2023-02-12T07:48:49.931Z,101864.78
2023-02-12T07:49:34.265Z,101881.75
2023-02-12T07:50:33.256Z,101852.66
2023-02-12T07:51:19.558Z,101878.91
2023-02-12T07:52:03.468Z,101862.16
2023-02-12T07:53:05.409Z,101868.56
2023-02-12T07:53:59.148Z,101881.44
2023-02-12T07:54:54.142Z,101865.41
2023-02-12T07:55:58.537Z,101880.34
2023-02-12T07:56:43.158Z,101880.59
2023-02-12T07:57:37.190Z,101873.94
2023-02-12T07:58:33.310Z,101879.63
2023-02-12T07:59:19.657Z,101878.44
2023-02-12T08:00:08.508Z,101881.94
2023-02-12T08:00:59.072Z,101880.13
2023-02-12T08:01:54.787Z,101882.56
2023-02-12T08:02:37.465Z,101879.72
2023-02-12T08:03:19.240Z,101851.91
2023-02-12T08:04:15.781Z,101886.22
2023-02-12T08:05:06.904Z,101880.13
2023-02-12T08:05:51.915Z,101882.44
2023-02-12T08:06:49.672Z,101886.97
2023-02-12T08:07:31.382Z,101882.84
2023-02-12T08:08:13.124Z,101885.94
2023-02-12T08:09:02.089Z,101887.00
2023-02-12T08:09:43.826Z,101868.78
2023-02-12T08:10:34.054Z,101846.34
2023-02-12T08:11:16.571Z,101888.50
2023-02-12T08:11:59.548Z,101865.31
2023-02-12T08:12:54.265Z,101876.38
2023-02-12T08:13:39.370Z,101874.06
2023-02-12T08:14:28.696Z,101888.50
2023-02-12T08:15:13.234Z,101898.09
2023-02-12T08:16:06.627Z,101896.81
2023-02-12T08:16:57.642Z,101890.19
2023-02-12T08:17:44.965Z,101859.53
2023-02-12T08:18:35.843Z,101885.50
2023-02-12T08:19:26.431Z,101893.50
2023-02-12T08:20:09.295Z,101878.91
2023-02-12T08:21:14.004Z,101892.81
2023-02-12T08:22:03.110Z,101897.75
2023-02-12T08:22:44.834Z,101872.88
2023-02-12T08:23:32.366Z,101875.06
2023-02-12T08:24:23.179Z,101879.72
2023-02-12T08:25:14.011Z,101888.13
2023-02-12T08:26:33.398Z,101892.88
2023-02-12T08:27:21.556Z,101885.00
2023-02-12T08:29:19.693Z,101892.47
2023-02-12T08:30:22.819Z,101873.31
2023-02-12T08:31:07.582Z,101890.47
2023-02-12T08:32:00.558Z,101903.44
2023-02-12T08:32:47.226Z,101890.78
2023-02-12T08:33:31.750Z,101897.66
2023-02-12T08:34:23.296Z,101890.69
2023-02-12T08:35:05.242Z,101876.38
2023-02-12T08:35:49.618Z,101867.09
2023-02-12T08:36:39.288Z,101898.69
2023-02-12T08:37:36.974Z,101887.75
2023-02-12T08:38:31.793Z,101901.44
2023-02-12T08:39:20.279Z,101890.06
2023-02-12T08:40:07.183Z,101888.41
2023-02-12T08:40:52.890Z,101868.78
2023-02-12T08:41:40.808Z,101897.66
2023-02-12T08:42:34.204Z,101897.44
2023-02-12T08:43:19.773Z,101906.00
2023-02-12T08:44:08.231Z,101899.75
2023-02-12T08:44:55.726Z,101905.00
2023-02-12T08:45:43.300Z,101873.72
2023-02-12T08:46:32.245Z,101888.56
2023-02-12T08:47:21.620Z,101869.31
2023-02-12T08:48:09.782Z,101892.66
2023-02-12T08:49:03.908Z,101873.91
2023-02-12T08:49:54.329Z,101879.19
2023-02-12T08:50:39.968Z,101888.34
2023-02-12T08:51:24.741Z,101863.72
2023-02-12T08:52:06.604Z,101890.69
2023-02-12T08:52:53.942Z,101885.94
2023-02-12T08:53:41.524Z,101897.06
2023-02-12T08:54:30.539Z,101896.44
2023-02-12T08:55:23.682Z,101851.22
2023-02-12T08:56:11.066Z,101888.59
2023-02-12T08:57:06.200Z,101903.00
2023-02-12T08:57:52.939Z,101899.72
2023-02-12T08:58:35.557Z,101891.13
2023-02-12T08:59:17.539Z,101882.78
2023-02-12T09:00:01.891Z,101881.31
2023-02-12T09:00:53.025Z,101900.47
2023-02-12T09:01:42.267Z,101899.41
2023-02-12T09:02:27.914Z,101862.38
2023-02-12T09:03:21.160Z,101899.19
2023-02-12T09:04:04.773Z,101888.38
2023-02-12T09:04:51.054Z,101900.38
2023-02-12T09:05:42.822Z,101872.28
2023-02-12T09:06:27.014Z,101904.41
2023-02-12T09:07:12.104Z,101830.06
2023-02-12T09:07:59.211Z,101907.78
2023-02-12T09:08:47.456Z,101897.44
2023-02-12T09:09:33.478Z,101885.53
2023-02-12T09:10:19.793Z,101899.41
2023-02-12T09:11:17.763Z,101902.91
2023-02-12T09:12:09.223Z,101851.53
2023-02-12T09:12:56.464Z,101874.13
2023-02-12T09:13:41.817Z,101872.03
2023-02-12T09:14:35.719Z,101894.75
2023-02-12T09:15:17.454Z,101898.31
2023-02-12T09:16:02.354Z,101899.38
2023-02-12T09:16:48.158Z,101882.31
2023-02-12T09:17:32.269Z,101899.78
2023-02-12T09:18:15.260Z,101880.75
2023-02-12T09:18:59.641Z,101877.03
2023-02-12T09:19:49.533Z,101904.81
2023-02-12T09:20:36.941Z,101898.69
2023-02-12T09:21:19.783Z,101898.69
2023-02-12T09:22:07.242Z,101885.34
2023-02-12T09:22:54.047Z,101895.47
2023-02-12T09:23:49.235Z,101902.91
2023-02-12T09:24:42.011Z,101903.97
2023-02-12T09:25:35.605Z,101891.78
2023-02-12T09:26:30.229Z,101901.91
2023-02-12T09:27:11.913Z,101900.72
2023-02-12T09:28:12.968Z,101909.53
2023-02-12T09:28:58.385Z,101878.44
2023-02-12T09:29:44.112Z,101881.13
2023-02-12T09:30:25.787Z,101884.25
2023-02-12T09:31:29.987Z,101913.00
2023-02-12T09:32:17.508Z,101898.34
2023-02-12T09:33:08.009Z,101887.84
2023-02-12T09:34:05.353Z,101900.47
2023-02-12T09:34:49.795Z,101906.28
2023-02-12T09:35:38.882Z,101910.38
2023-02-12T09:36:35.918Z,101893.81
2023-02-12T09:37:30.194Z,101910.31
2023-02-12T09:38:17.705Z,101887.09
2023-02-12T09:39:04.001Z,101903.59
2023-02-12T09:39:48.576Z,101907.47
2023-02-12T09:41:02.014Z,101907.22
2023-02-12T09:42:09.456Z,101909.53
2023-02-12T09:43:12.048Z,101909.19
2023-02-12T09:44:04.403Z,101882.25
2023-02-12T09:45:10.527Z,101905.69
2023-02-12T09:46:14.063Z,101898.13
2023-02-12T09:47:30.236Z,101906.66
2023-02-12T09:48:50.347Z,101892.22
2023-02-12T09:49:52.427Z,101881.25
2023-02-12T09:51:01.965Z,101856.00
2023-02-12T09:51:54.911Z,101883.53
2023-02-12T09:52:53.107Z,101890.91
2023-02-12T09:53:40.564Z,101871.66
2023-02-12T09:54:37.687Z,101890.63
2023-02-12T09:55:19.867Z,101873.09